Terminal Aerodrome Forecast
Issued by NWS Tampa Bay Area, FL

Home | Current Version | Previous Version | Text Only | Print | Product List | Glossary On
Versions: 1 2 3 4 5 6 7 8 9 10 11 12 13 14 15 16 17 18 19 20 21 22 23 24 25 26 27 28 29 30
786
FTUS42 KTBW 060856 AAA
TAFTPA
TAF AMD
KTPA 060856Z 0609/0706 02010KT P6SM FEW025 FEW040
     FM061400 03009KT P6SM SCT025 BKN035
     FM061700 03008KT P6SM SCT015 BKN030
     FM062000 36008KT P6SM VCSH SCT010 BKN020=

USA.gov is the U.S. government's official web portal to all federal, state and local government web resources and services.